createdAt,value
2018-01-02T00:00:44.160Z,73.65
2018-01-02T00:03:12.542Z,74.64
2018-01-02T00:05:40.883Z,74.48
2018-01-02T00:08:09.303Z,73.93
2018-01-02T00:10:37.648Z,73.23
2018-01-02T00:13:06.106Z,72.86
2018-01-02T00:15:34.487Z,74.81
2018-01-02T00:18:02.836Z,74.28
2018-01-02T00:20:31.210Z,74.08
2018-01-02T00:22:59.579Z,73.73
2018-01-02T00:25:27.931Z,75.50
2018-01-02T00:27:56.301Z,77.60
2018-01-02T00:30:24.639Z,75.46
2018-01-02T00:32:53.031Z,73.35
2018-01-02T00:35:21.378Z,74.50
2018-01-02T00:37:49.726Z,74.52
2018-01-02T00:40:18.071Z,74.50
2018-01-02T00:42:46.415Z,76.33
2018-01-02T00:45:14.800Z,77.61
2018-01-02T00:47:43.169Z,75.62
2018-01-02T00:50:11.540Z,75.05
2018-01-02T00:52:39.874Z,75.91
2018-01-02T00:55:08.223Z,75.54
2018-01-02T00:57:36.568Z,75.68
2018-01-02T01:00:04.956Z,76.31
2018-01-02T01:02:33.295Z,75.95
2018-01-02T01:05:01.664Z,73.51
2018-01-02T01:07:30.020Z,74.77
2018-01-02T01:09:58.368Z,74.46
2018-01-02T01:12:26.719Z,74.52
2018-01-02T01:14:55.069Z,75.19
2018-01-02T01:17:23.464Z,75.22
2018-01-02T01:19:51.833Z,74.61
2018-01-02T01:22:20.182Z,74.91
2018-01-02T01:24:48.546Z,77.71
2018-01-02T01:27:16.901Z,74.30
2018-01-02T01:29:45.286Z,75.81
2018-01-02T01:32:13.645Z,75.28
2018-01-02T01:34:41.995Z,76.95
2018-01-02T01:37:10.343Z,76.75
2018-01-02T01:39:38.702Z,76.70
2018-01-02T01:42:07.094Z,77.07
2018-01-02T01:44:35.487Z,76.36
2018-01-02T01:47:03.827Z,76.55
2018-01-02T01:49:32.198Z,75.47
2018-01-02T01:52:00.698Z,77.73
2018-01-02T01:54:29.085Z,79.14
2018-01-02T01:56:57.439Z,77.40
2018-01-02T01:59:25.781Z,77.26
2018-01-02T02:01:54.118Z,77.49
2018-01-02T02:04:22.475Z,77.65
2018-01-02T02:06:50.838Z,76.53
2018-01-02T02:09:19.193Z,74.66
2018-01-02T02:11:47.526Z,76.04
2018-01-02T02:14:15.886Z,76.07
2018-01-02T02:16:44.240Z,75.66
2018-01-02T02:19:12.619Z,73.66
2018-01-02T02:21:40.963Z,72.49
2018-01-02T02:24:09.316Z,74.89
2018-01-02T02:26:37.659Z,75.14
2018-01-02T02:29:06.011Z,76.17
2018-01-02T02:31:34.385Z,74.71
2018-01-02T02:34:02.746Z,75.47
2018-01-02T02:36:31.102Z,76.08
2018-01-02T02:38:59.438Z,72.87
2018-01-02T02:41:27.835Z,72.74
2018-01-02T02:43:56.191Z,74.52
2018-01-02T02:46:24.544Z,73.45
2018-01-02T02:48:52.909Z,73.67
2018-01-02T02:51:21.250Z,74.83
2018-01-02T02:53:49.612Z,72.39
2018-01-02T02:56:17.966Z,74.57
2018-01-02T02:58:46.432Z,71.88
2018-01-02T03:01:14.829Z,71.43
2018-01-02T03:03:43.174Z,70.84
2018-01-02T03:06:11.528Z,71.83
2018-01-02T03:08:39.888Z,72.03
2018-01-02T03:11:08.240Z,72.31
2018-01-02T03:13:36.639Z,73.73
2018-01-02T03:16:04.996Z,73.75
2018-01-02T03:18:33.352Z,75.38
2018-01-02T03:21:01.710Z,73.21
2018-01-02T03:23:30.075Z,73.18
2018-01-02T03:25:58.439Z,77.10
2018-01-02T03:28:26.782Z,72.77
2018-01-02T03:30:55.135Z,72.75
2018-01-02T03:33:23.486Z,71.68
2018-01-02T03:35:51.858Z,74.02
2018-01-02T03:38:20.211Z,73.59
2018-01-02T03:40:48.558Z,74.62
2018-01-02T03:43:16.922Z,73.36
2018-01-02T03:45:45.266Z,72.88
2018-01-02T03:48:13.644Z,72.11
2018-01-02T03:50:41.981Z,72.06
2018-01-02T03:53:10.337Z,71.49
2018-01-02T03:55:38.698Z,72.65
2018-01-02T03:58:07.044Z,72.42
2018-01-02T04:00:35.387Z,72.82
2018-01-02T04:03:03.769Z,70.27
2018-01-02T04:05:32.107Z,69.63
2018-01-02T04:08:00.460Z,68.93
2018-01-02T04:10:28.803Z,69.95
2018-01-02T04:12:57.155Z,71.04
2018-01-02T04:15:25.519Z,71.02
2018-01-02T04:17:53.909Z,69.25
2018-01-02T04:20:22.271Z,72.51
2018-01-02T04:22:50.658Z,72.89
2018-01-02T04:25:19.014Z,73.77
2018-01-02T04:27:47.385Z,73.80
2018-01-02T04:30:15.792Z,72.15
2018-01-02T04:32:44.151Z,71.70
2018-01-02T04:35:12.515Z,71.92
2018-01-02T04:37:40.876Z,71.65
2018-01-02T04:40:09.234Z,72.25
2018-01-02T04:42:37.594Z,72.48
2018-01-02T04:45:06.004Z,70.61
2018-01-02T04:47:34.350Z,73.62
2018-01-02T04:50:02.720Z,70.86
2018-01-02T04:52:31.099Z,71.29
2018-01-02T04:54:59.454Z,75.30
2018-01-02T04:57:27.908Z,71.83
2018-01-02T04:59:56.269Z,71.44
2018-01-02T05:02:24.637Z,77.25
2018-01-02T05:04:52.986Z,75.49
2018-01-02T05:07:21.345Z,71.86
2018-01-02T05:09:49.759Z,73.25
2018-01-02T05:12:18.114Z,73.68
2018-01-02T05:14:46.474Z,72.32
2018-01-02T05:17:14.831Z,73.57
2018-01-02T05:19:43.190Z,71.13
2018-01-02T05:22:11.591Z,70.57
2018-01-02T05:24:39.951Z,69.78
2018-01-02T05:27:08.293Z,70.82
2018-01-02T05:29:36.637Z,71.04
2018-01-02T05:32:04.979Z,71.53
2018-01-02T05:34:33.354Z,72.14
2018-01-02T05:37:01.720Z,70.21
2018-01-02T05:39:30.141Z,70.90
2018-01-02T05:41:58.517Z,72.22
2018-01-02T05:44:26.870Z,71.22
2018-01-02T05:46:55.272Z,71.98
2018-01-02T05:49:23.663Z,70.15
2018-01-02T05:51:52.010Z,69.98
2018-01-02T05:54:20.386Z,69.77
2018-01-02T05:56:48.734Z,74.58
2018-01-02T05:59:17.084Z,72.74
2018-01-02T06:01:45.465Z,73.23
2018-01-02T06:04:13.818Z,73.52
2018-01-02T06:06:42.183Z,72.14
2018-01-02T06:09:10.534Z,71.31
2018-01-02T06:11:39.023Z,72.56
2018-01-02T06:14:07.402Z,71.07
2018-01-02T06:16:35.751Z,71.70
2018-01-02T06:19:04.100Z,73.42
2018-01-02T06:21:32.439Z,73.34
2018-01-02T06:24:00.795Z,75.29
2018-01-02T06:26:29.150Z,75.51
2018-01-02T06:28:57.621Z,74.00
2018-01-02T06:31:25.982Z,73.86
2018-01-02T06:33:54.382Z,75.01
2018-01-02T06:36:22.821Z,71.93
2018-01-02T06:38:51.207Z,69.98
2018-01-02T06:41:19.558Z,72.29
2018-01-02T06:43:47.965Z,71.67
2018-01-02T06:46:16.288Z,71.24
2018-01-02T06:48:44.710Z,73.80
2018-01-02T06:51:13.379Z,76.03
2018-01-02T06:53:41.755Z,73.74
2018-01-02T06:56:10.130Z,72.17
2018-01-02T06:58:38.487Z,75.48
2018-01-02T07:01:06.847Z,72.62
2018-01-02T07:03:35.245Z,70.95
2018-01-02T07:06:03.631Z,72.33
2018-01-02T07:08:32.022Z,71.25
2018-01-02T07:11:00.398Z,73.96
2018-01-02T07:13:28.775Z,76.41
2018-01-02T07:15:57.160Z,75.97
2018-01-02T07:18:25.592Z,76.39
2018-01-02T07:20:53.975Z,73.76
2018-01-02T07:23:22.360Z,74.49
2018-01-02T07:25:50.801Z,73.29
2018-01-02T07:28:19.195Z,73.95
2018-01-02T07:30:47.556Z,72.10
2018-01-02T07:33:16.070Z,74.16
2018-01-02T07:35:44.427Z,71.22
2018-01-02T07:38:12.814Z,71.65
2018-01-02T07:40:41.216Z,74.20
2018-01-02T07:43:09.624Z,73.44
2018-01-02T07:45:38.137Z,73.45
2018-01-02T07:48:06.563Z,74.68
2018-01-02T07:50:34.947Z,71.81
2018-01-02T07:53:03.341Z,71.73
2018-01-02T07:55:31.747Z,71.85
2018-01-02T07:58:00.116Z,71.66
2018-01-02T08:00:28.565Z,72.09
2018-01-02T08:02:56.960Z,72.26
2018-01-02T08:05:25.341Z,70.17
2018-01-02T08:11:09.205Z,73.56
2018-01-02T08:13:37.624Z,74.87
2018-01-02T08:16:05.991Z,74.08
2018-01-02T08:18:34.440Z,72.25
2018-01-02T08:21:02.817Z,73.07
2018-01-02T08:23:31.182Z,72.38
2018-01-02T08:25:59.582Z,71.24
2018-01-02T08:28:27.990Z,70.17
2018-01-02T08:30:56.461Z,69.93
2018-01-02T08:33:24.852Z,72.50
2018-01-02T08:35:53.255Z,69.96
2018-01-02T08:38:21.750Z,71.37
2018-01-02T08:40:50.114Z,70.83
2018-01-02T08:43:18.526Z,71.12
2018-01-02T08:45:46.909Z,76.36
2018-01-02T08:48:15.276Z,75.01
2018-01-02T08:50:43.666Z,76.16
2018-01-02T08:53:12.295Z,74.41
2018-01-02T08:55:40.698Z,74.08
2018-01-02T08:58:09.118Z,72.66
2018-01-02T09:00:37.508Z,74.96
2018-01-02T09:03:05.899Z,74.17
2018-01-02T09:05:34.287Z,72.35
2018-01-02T09:08:02.855Z,71.09
2018-01-02T09:10:31.319Z,70.78
2018-01-02T09:12:59.702Z,70.79
2018-01-02T09:15:28.076Z,68.98
2018-01-02T09:17:56.552Z,69.39
2018-01-02T09:20:24.999Z,72.15
2018-01-02T09:22:53.363Z,71.50
2018-01-02T09:25:21.752Z,71.78
2018-01-02T09:27:50.199Z,71.98
2018-01-02T09:30:18.605Z,70.53
2018-01-02T09:32:47.100Z,68.46
2018-01-02T09:35:15.519Z,72.02
2018-01-02T09:37:43.890Z,72.49
2018-01-02T09:40:12.303Z,71.06
2018-01-02T09:42:40.655Z,71.76
2018-01-02T09:45:09.054Z,71.43
2018-01-02T09:47:37.441Z,71.37
2018-01-02T09:50:05.853Z,70.97
2018-01-02T09:52:35.259Z,70.67
2018-01-02T09:55:03.648Z,71.06
2018-01-02T09:57:32.148Z,70.87
2018-01-02T10:00:00.527Z,70.68
2018-01-02T10:02:29.858Z,68.60
2018-01-02T10:04:58.233Z,71.14
2018-01-02T10:07:26.588Z,73.29
2018-01-02T10:09:55.012Z,75.33
2018-01-02T10:12:23.393Z,74.53
2018-01-02T10:14:51.761Z,74.45
2018-01-02T10:17:20.178Z,74.26
2018-01-02T10:19:48.557Z,73.79
2018-01-02T10:22:17.023Z,73.62
2018-01-02T10:24:45.395Z,73.42
2018-01-02T10:27:13.766Z,73.91
2018-01-02T10:29:42.133Z,74.31
2018-01-02T10:32:10.555Z,73.34
2018-01-02T10:34:38.965Z,76.50
2018-01-02T10:37:07.351Z,75.20
2018-01-02T10:39:37.680Z,72.56
2018-01-02T10:42:06.187Z,72.32
2018-01-02T10:44:34.558Z,70.06
2018-01-02T10:47:02.964Z,70.35
2018-01-02T10:49:31.346Z,71.30
2018-01-02T10:51:59.693Z,71.42
2018-01-02T10:54:28.054Z,72.66
2018-01-02T10:56:56.418Z,72.65
2018-01-02T10:59:24.826Z,72.36
2018-01-02T11:01:54.073Z,70.59
2018-01-02T11:04:22.455Z,70.47
2018-01-02T11:11:03.251Z,76.92
2018-01-02T11:13:37.167Z,73.21
2018-01-02T11:16:05.540Z,74.31
2018-01-02T11:18:33.910Z,73.15
2018-01-02T11:21:02.395Z,73.84
2018-01-02T11:23:30.762Z,73.97
2018-01-02T11:25:59.201Z,75.65
2018-01-02T11:28:27.571Z,77.03
2018-01-02T11:30:55.911Z,73.92
2018-01-02T11:33:24.315Z,75.51
2018-01-02T11:35:52.746Z,76.94
2018-01-02T11:38:21.262Z,76.30
2018-01-02T11:40:49.689Z,77.25
2018-01-02T11:43:18.113Z,75.54
2018-01-02T11:45:46.465Z,74.42
2018-01-02T11:48:14.819Z,78.92
2018-01-02T11:50:43.247Z,75.56
2018-01-02T11:53:11.815Z,78.53
2018-01-02T11:55:40.226Z,76.20
2018-01-02T11:58:08.590Z,75.86
2018-01-02T12:00:36.980Z,77.89
2018-01-02T12:03:05.387Z,76.76
2018-01-02T12:05:33.765Z,76.43
2018-01-02T12:08:02.130Z,74.70
2018-01-02T12:10:30.537Z,73.23
2018-01-02T12:12:58.904Z,75.33
2018-01-02T12:15:27.362Z,72.56
2018-01-02T12:17:55.736Z,72.42
2018-01-02T12:20:24.106Z,71.92
2018-01-02T12:22:52.456Z,71.13
2018-01-02T12:25:20.811Z,72.13
2018-01-02T12:27:50.156Z,70.19
2018-01-02T12:30:18.560Z,65.43
2018-01-02T12:32:46.940Z,64.26
2018-01-02T12:35:15.315Z,62.67
2018-01-02T12:37:43.712Z,60.37
2018-01-02T12:40:12.153Z,59.27
2018-01-02T12:42:40.536Z,59.23
2018-01-02T12:45:08.897Z,60.07
2018-01-02T12:47:37.315Z,62.95
2018-01-02T12:50:05.683Z,62.69
2018-01-02T12:52:34.089Z,65.35
2018-01-02T12:55:03.453Z,68.13
2018-01-02T12:57:31.831Z,67.20
2018-01-02T13:00:00.211Z,66.59
2018-01-02T13:02:28.604Z,67.08
2018-01-02T13:04:57.001Z,69.42
2018-01-02T13:07:25.368Z,67.56
2018-01-02T13:09:53.748Z,67.78
2018-01-02T13:12:22.115Z,68.11
2018-01-02T13:14:50.494Z,66.41
2018-01-02T13:17:18.882Z,67.81
2018-01-02T13:19:47.245Z,68.34
2018-01-02T13:22:15.600Z,69.45
2018-01-02T13:24:43.947Z,71.83
2018-01-02T13:27:12.318Z,71.91
2018-01-02T13:29:40.748Z,71.36
2018-01-02T13:32:09.122Z,72.27
2018-01-02T13:34:37.567Z,73.25
2018-01-02T13:37:05.938Z,72.76
2018-01-02T13:39:34.295Z,72.72
2018-01-02T13:42:02.700Z,71.57
2018-01-02T13:44:31.078Z,73.41
2018-01-02T13:46:59.504Z,74.04
2018-01-02T13:49:27.909Z,72.70
2018-01-02T13:51:56.313Z,71.45
2018-01-02T13:54:24.658Z,72.03
2018-01-02T13:56:53.015Z,71.99
2018-01-02T13:59:21.499Z,72.21
2018-01-02T14:01:49.937Z,74.04
2018-01-02T14:04:18.331Z,73.68
2018-01-02T14:06:47.797Z,73.19
2018-01-02T14:09:16.142Z,71.50
2018-01-02T14:11:44.555Z,72.37
2018-01-02T14:14:12.961Z,73.98
2018-01-02T14:16:41.496Z,71.17
2018-01-02T14:19:09.880Z,72.12
2018-01-02T14:21:38.266Z,74.75
2018-01-02T14:24:06.697Z,73.70
2018-01-02T14:26:35.030Z,72.54
2018-01-02T14:29:03.457Z,72.95
2018-01-02T14:31:31.840Z,73.20
2018-01-02T14:34:00.220Z,74.12
2018-01-02T14:36:28.633Z,74.10
2018-01-02T14:38:57.015Z,72.44
2018-01-02T14:41:25.426Z,76.42
2018-01-02T14:43:53.794Z,72.72
2018-01-02T14:46:22.154Z,72.02
2018-01-02T14:48:50.564Z,72.67
2018-01-02T14:51:18.927Z,72.46
2018-01-02T14:53:47.415Z,75.27
2018-01-02T14:56:15.794Z,73.34
2018-01-02T14:58:44.347Z,73.90
2018-01-02T15:01:12.740Z,73.64
2018-01-02T15:03:41.129Z,73.10
2018-01-02T15:06:09.487Z,75.85
2018-01-02T15:08:37.881Z,74.74
2018-01-02T15:11:06.278Z,74.29
2018-01-02T15:13:34.688Z,74.79
2018-01-02T15:16:03.062Z,75.30
2018-01-02T15:18:31.492Z,76.00
2018-01-02T15:20:59.897Z,73.47
2018-01-02T15:23:28.424Z,74.21
2018-01-02T15:25:56.877Z,74.15
2018-01-02T15:28:25.236Z,73.06
2018-01-02T15:30:53.650Z,72.17
2018-01-02T15:33:22.030Z,73.18
2018-01-02T15:35:50.417Z,73.83
2018-01-02T15:38:18.828Z,72.33
2018-01-02T15:40:47.172Z,72.81
2018-01-02T15:43:15.655Z,72.70
2018-01-02T15:45:44.034Z,71.22
2018-01-02T15:48:12.452Z,73.79
2018-01-02T15:50:40.889Z,72.77
2018-01-02T15:53:09.253Z,73.55
2018-01-02T15:55:37.657Z,73.55
2018-01-02T15:58:06.049Z,72.44
2018-01-02T16:00:34.513Z,71.84
2018-01-02T16:03:03.079Z,72.27
2018-01-02T16:05:31.502Z,72.99
2018-01-02T16:07:59.864Z,71.63
2018-01-02T16:10:29.486Z,74.14
2018-01-02T16:12:58.819Z,73.90
2018-01-02T16:15:27.238Z,73.53
2018-01-02T16:17:55.762Z,74.63
2018-01-02T16:20:24.151Z,74.87
2018-01-02T16:22:52.537Z,74.50
2018-01-02T16:25:20.917Z,74.63
2018-01-02T16:27:49.360Z,75.67
2018-01-02T16:30:17.742Z,73.89
2018-01-02T16:32:46.168Z,74.03
2018-01-02T16:35:14.559Z,73.71
2018-01-02T16:37:42.929Z,74.09
2018-01-02T16:40:11.313Z,73.96
2018-01-02T16:42:39.709Z,75.36
2018-01-02T16:45:08.131Z,76.21
2018-01-02T16:47:36.512Z,73.18
2018-01-02T16:50:04.882Z,74.56
2018-01-02T16:52:33.260Z,75.48
2018-01-02T16:55:01.646Z,74.30
2018-01-02T16:57:30.155Z,75.35
2018-01-02T16:59:58.532Z,75.09
2018-01-02T17:02:26.976Z,74.84
2018-01-02T17:04:55.354Z,76.71
2018-01-02T17:07:23.745Z,77.27
2018-01-02T17:09:52.178Z,75.64
2018-01-02T17:12:20.673Z,75.41
2018-01-02T17:14:49.100Z,75.75
2018-01-02T17:17:17.481Z,74.58
2018-01-02T17:19:45.866Z,73.66
2018-01-02T17:22:14.261Z,73.66
2018-01-02T17:24:42.624Z,75.44
2018-01-02T17:27:11.106Z,73.22
2018-01-02T17:29:39.479Z,73.63
2018-01-02T17:32:07.883Z,73.94
2018-01-02T17:34:36.400Z,73.73
2018-01-02T17:37:04.835Z,72.09
2018-01-02T17:39:33.235Z,74.70
2018-01-02T17:42:01.643Z,74.67
2018-01-02T17:44:30.017Z,75.20
2018-01-02T17:46:58.508Z,74.75
2018-01-02T17:52:01.531Z,74.07
2018-01-02T17:54:29.996Z,73.31
2018-01-02T17:56:58.352Z,73.90
2018-01-02T17:59:26.703Z,74.44
2018-01-02T18:01:55.086Z,74.16
2018-01-02T18:04:23.714Z,75.14
2018-01-02T18:06:52.265Z,75.15
2018-01-02T18:09:20.644Z,73.97
2018-01-02T18:11:49.037Z,75.67
2018-01-02T18:14:17.440Z,75.03
2018-01-02T18:16:45.875Z,75.17
2018-01-02T18:19:14.429Z,75.48
2018-01-02T18:21:42.780Z,74.00
2018-01-02T18:24:11.157Z,75.32
2018-01-02T18:26:39.557Z,73.58
2018-01-02T18:29:07.974Z,74.84
2018-01-02T18:31:36.535Z,74.29
2018-01-02T18:34:04.956Z,73.69
2018-01-02T18:36:33.352Z,73.09
2018-01-02T18:39:01.721Z,73.57
2018-01-02T18:41:30.114Z,72.92
2018-01-02T18:43:58.543Z,74.58
2018-01-02T18:46:26.958Z,74.01
2018-01-02T18:48:55.327Z,74.49
2018-01-02T18:51:23.717Z,74.29
2018-01-02T18:53:52.130Z,75.14
2018-01-02T18:56:20.752Z,74.88
2018-01-02T18:58:49.167Z,73.67
2018-01-02T19:01:17.675Z,76.92
2018-01-02T19:03:46.096Z,76.17
2018-01-02T19:06:14.475Z,76.04
2018-01-02T19:08:42.937Z,76.27
2018-01-02T19:11:11.349Z,77.17
2018-01-02T19:13:39.781Z,76.77
2018-01-02T19:16:08.146Z,77.50
2018-01-02T19:18:36.515Z,77.36
2018-01-02T19:21:04.919Z,76.31
2018-01-02T19:23:33.292Z,77.22
2018-01-02T19:26:01.667Z,77.06
2018-01-02T19:28:30.072Z,77.21
2018-01-02T19:30:58.442Z,76.65
2018-01-02T19:33:26.851Z,76.80
2018-01-02T19:35:55.320Z,74.04
2018-01-02T19:38:23.724Z,74.42
2018-01-02T19:40:52.101Z,76.38
2018-01-02T19:43:20.506Z,76.10
2018-01-02T19:45:48.906Z,74.95
2018-01-02T19:48:17.353Z,77.13
2018-01-02T19:50:45.763Z,76.12
2018-01-02T19:53:14.143Z,78.50
2018-01-02T19:55:42.722Z,76.03
2018-01-02T19:58:11.130Z,74.87
2018-01-02T20:00:40.407Z,73.56
2018-01-02T20:03:09.072Z,75.14
2018-01-02T20:05:37.427Z,75.99
2018-01-02T20:08:05.801Z,77.24
2018-01-02T20:10:35.132Z,77.07
2018-01-02T20:13:03.565Z,77.09
2018-01-02T20:15:31.962Z,78.21
2018-01-02T20:18:00.390Z,77.59
2018-01-02T20:20:28.755Z,76.22
2018-01-02T20:22:57.148Z,75.60
2018-01-02T20:25:25.545Z,76.55
2018-01-02T20:27:53.938Z,78.06
2018-01-02T20:30:22.350Z,76.93
2018-01-02T20:32:50.740Z,78.35
2018-01-02T20:35:19.114Z,74.94
2018-01-02T20:37:47.650Z,75.65
2018-01-02T20:40:16.132Z,76.36
2018-01-02T20:42:44.512Z,78.07
2018-01-02T20:45:12.897Z,75.60
2018-01-02T20:47:41.259Z,73.12
2018-01-02T20:50:09.628Z,75.05
2018-01-02T20:52:38.016Z,74.48
2018-01-02T20:55:06.394Z,76.01
2018-01-02T20:57:34.777Z,76.79
2018-01-02T21:00:03.291Z,77.85
2018-01-02T21:02:31.667Z,75.95
2018-01-02T21:05:00.054Z,74.37
2018-01-02T21:07:28.416Z,74.27
2018-01-02T21:09:56.784Z,76.12
2018-01-02T21:12:25.277Z,76.30
2018-01-02T21:14:53.678Z,78.77
2018-01-02T21:17:22.073Z,78.77
2018-01-02T21:19:50.499Z,80.18
2018-01-02T21:22:18.881Z,81.18
2018-01-02T21:24:47.340Z,79.48
2018-01-02T21:27:15.689Z,80.33
2018-01-02T21:29:44.111Z,79.72
2018-01-02T21:32:12.523Z,79.23
2018-01-02T21:34:40.907Z,80.19
2018-01-02T21:37:09.449Z,80.31
2018-01-02T21:39:37.861Z,81.10
2018-01-02T21:42:06.240Z,77.83
2018-01-02T21:44:34.634Z,79.72
2018-01-02T21:47:02.993Z,78.39
2018-01-02T21:49:31.371Z,76.71
2018-01-02T21:51:59.787Z,78.62
2018-01-02T21:54:28.141Z,79.18
2018-01-02T21:56:56.511Z,78.55
2018-01-02T21:59:24.865Z,78.86
2018-01-02T22:01:53.285Z,78.60
2018-01-02T22:04:21.914Z,79.07
2018-01-02T22:06:50.282Z,79.62
2018-01-02T22:09:18.648Z,80.16
2018-01-02T22:11:47.042Z,78.46
2018-01-02T22:14:15.438Z,79.45
2018-01-02T22:16:43.803Z,79.97
2018-01-02T22:19:12.151Z,79.33
2018-01-02T22:21:40.522Z,79.09
2018-01-02T22:24:08.919Z,78.01
2018-01-02T22:26:38.289Z,77.85
2018-01-02T22:29:06.695Z,78.91
2018-01-02T22:31:35.048Z,80.54
2018-01-02T22:34:03.448Z,80.10
2018-01-02T22:36:31.923Z,77.30
2018-01-02T22:39:00.315Z,79.83
2018-01-02T22:41:28.653Z,79.27
2018-01-02T22:43:57.031Z,79.96
2018-01-02T22:46:25.401Z,80.45
2018-01-02T22:48:53.806Z,81.51
2018-01-02T22:51:22.337Z,80.70
2018-01-02T22:53:50.752Z,80.38
2018-01-02T22:56:19.128Z,78.63
2018-01-02T22:58:47.742Z,81.53
2018-01-02T23:01:16.208Z,81.99
2018-01-02T23:03:44.719Z,81.17
2018-01-02T23:06:13.182Z,82.41
2018-01-02T23:08:41.585Z,81.39
2018-01-02T23:11:09.972Z,82.27
2018-01-02T23:13:38.386Z,82.53
2018-01-02T23:16:06.760Z,82.55
2018-01-02T23:18:35.174Z,83.43
2018-01-02T23:21:03.524Z,83.66
2018-01-02T23:23:31.876Z,83.92
2018-01-02T23:26:01.190Z,83.32
2018-01-02T23:28:29.563Z,82.90
2018-01-02T23:30:57.937Z,82.18
2018-01-02T23:33:26.312Z,80.95
2018-01-02T23:35:54.660Z,80.39
2018-01-02T23:38:23.045Z,80.36
2018-01-02T23:40:51.431Z,78.38
2018-01-02T23:43:19.765Z,78.41
2018-01-02T23:45:48.110Z,80.52
2018-01-02T23:48:16.541Z,79.21
2018-01-02T23:50:45.080Z,79.12
2018-01-02T23:53:13.479Z,80.70
2018-01-02T23:55:41.832Z,80.76
2018-01-02T23:58:10.183Z,79.85
